Time;durP1;ratioP1;P1;durP2;ratioP2;P2;SDS_P1;SDS_P2;PMS_P1;PMS_P2;Temp;Humidity;BMP_temperature;BMP_pressure;BME280_temperature;BME280_humidity;BME280_pressure;Samples;Min_cycle;Max_cycle;Signal;HPM_P1;HPM_P2
2022/02/15 00:00:36;;;;;;;5.27;2.57;;;7.30;99.90;;;;;;5073284;28;20175;-82
2022/02/15 00:03:01;;;;;;;5.27;2.30;;;7.30;99.90;;;;;;5071765;28;20461;-83
2022/02/15 00:05:27;;;;;;;6.33;2.60;;;7.20;99.90;;;;;;5090778;22;20503;-85
2022/02/15 00:07:53;;;;;;;5.90;2.83;;;7.20;99.90;;;;;;5073212;28;20181;-85
2022/02/15 00:10:18;;;;;;;5.73;2.33;;;7.20;99.90;;;;;;5073406;28;20186;-85
2022/02/15 00:12:44;;;;;;;4.77;2.17;;;7.30;99.90;;;;;;5073258;28;20186;-85
2022/02/15 00:15:11;;;;;;;7.97;3.00;;;7.30;99.90;;;;;;5072843;28;20209;-84
2022/02/15 00:17:39;;;;;;;10.33;4.30;;;7.30;99.90;;;;;;5073144;28;20183;-84
2022/02/15 00:20:06;;;;;;;6.50;2.30;;;7.40;99.90;;;;;;5072664;28;20424;-84
2022/02/15 00:22:32;;;;;;;5.60;2.33;;;7.40;99.90;;;;;;5073925;28;20461;-84
2022/02/15 00:24:58;;;;;;;4.30;2.10;;;7.50;99.90;;;;;;5072718;28;20445;-84
2022/02/15 00:27:24;;;;;;;6.00;2.70;;;7.50;99.90;;;;;;5072986;28;20193;-85
2022/02/15 00:29:49;;;;;;;8.00;2.80;;;7.50;99.90;;;;;;5072927;28;20189;-85
2022/02/15 00:32:15;;;;;;;7.57;3.13;;;7.50;99.90;;;;;;5072603;28;20186;-85
2022/02/15 00:34:40;;;;;;;6.10;2.67;;;7.60;99.90;;;;;;5072648;28;20668;-84
2022/02/15 00:37:06;;;;;;;6.33;2.33;;;7.70;99.90;;;;;;5072484;28;20576;-84
2022/02/15 00:39:32;;;;;;;5.63;2.50;;;7.70;99.90;;;;;;5072509;28;20175;-84
2022/02/15 00:41:57;;;;;;;5.30;2.50;;;7.70;99.90;;;;;;5072446;28;20171;-85
2022/02/15 00:44:23;;;;;;;10.93;2.60;;;7.80;99.90;;;;;;5072398;28;20709;-84
2022/02/15 00:46:49;;;;;;;6.73;2.40;;;7.80;99.90;;;;;;5072097;28;20175;-84
2022/02/15 00:49:15;;;;;;;7.73;2.50;;;7.90;99.90;;;;;;5072217;28;20415;-85
2022/02/15 00:51:40;;;;;;;6.63;2.37;;;8.00;99.90;;;;;;5073303;28;20963;-85
2022/02/15 00:54:06;;;;;;;6.00;2.80;;;8.00;99.90;;;;;;5072259;28;20179;-85
2022/02/15 00:56:31;;;;;;;6.67;2.87;;;8.00;99.90;;;;;;5071287;28;20207;-85
2022/02/15 00:58:57;;;;;;;9.43;2.50;;;8.00;99.90;;;;;;5073822;28;20175;-85
2022/02/15 01:01:23;;;;;;;4.00;2.37;;;8.10;99.90;;;;;;5073574;28;20174;-85
2022/02/15 01:03:48;;;;;;;7.27;2.50;;;8.20;99.90;;;;;;5073385;28;20182;-85
2022/02/15 01:06:15;;;;;;;9.43;2.73;;;8.20;99.90;;;;;;5072064;28;20330;-85
2022/02/15 01:08:42;;;;;;;5.43;2.90;;;8.20;99.90;;;;;;5072063;28;20179;-84
2022/02/15 01:11:09;;;;;;;4.80;3.17;;;8.30;99.90;;;;;;5072684;28;20924;-84
2022/02/15 01:13:35;;;;;;;5.03;2.47;;;8.30;99.90;;;;;;5072334;28;20420;-85
2022/02/15 01:16:01;;;;;;;5.47;2.60;;;8.30;99.90;;;;;;5072164;28;20543;-84
2022/02/15 01:18:27;;;;;;;5.93;3.57;;;8.30;99.90;;;;;;5072056;28;20787;-85
2022/02/15 01:20:53;;;;;;;6.00;3.20;;;8.30;99.90;;;;;;5071994;28;20179;-84
2022/02/15 01:23:20;;;;;;;8.23;3.70;;;8.30;99.90;;;;;;5072331;28;20902;-84
2022/02/15 01:25:45;;;;;;;4.93;2.30;;;8.30;99.90;;;;;;5072105;28;20460;-85
2022/02/15 01:28:11;;;;;;;7.63;3.10;;;8.30;99.90;;;;;;5071766;28;20409;-85
2022/02/15 01:30:37;;;;;;;5.23;2.77;;;8.30;99.90;;;;;;5071970;28;20270;-84
2022/02/15 01:33:03;;;;;;;6.60;3.20;;;8.30;99.90;;;;;;5071863;28;20179;-84
2022/02/15 01:35:28;;;;;;;7.10;2.83;;;8.30;99.90;;;;;;5071532;28;20516;-84
2022/02/15 01:37:54;;;;;;;4.93;3.30;;;8.40;99.90;;;;;;5071490;28;20186;-85
2022/02/15 01:40:20;;;;;;;5.87;3.10;;;8.30;99.90;;;;;;5071554;28;20178;-85
2022/02/15 01:42:45;;;;;;;7.23;3.73;;;8.30;99.90;;;;;;5071597;28;20171;-85
2022/02/15 01:45:12;;;;;;;6.40;3.57;;;8.30;99.90;;;;;;5071293;28;20199;-85
2022/02/15 01:47:38;;;;;;;5.83;3.77;;;8.30;99.90;;;;;;5071698;28;20209;-84
2022/02/15 01:50:05;;;;;;;5.50;3.97;;;8.30;99.90;;;;;;5071377;28;20825;-84
2022/02/15 01:52:31;;;;;;;8.73;4.40;;;8.40;99.90;;;;;;5071342;28;20212;-85
2022/02/15 01:54:59;;;;;;;8.53;4.47;;;8.40;99.90;;;;;;5071330;28;20484;-85
2022/02/15 01:57:26;;;;;;;10.63;5.13;;;8.40;99.90;;;;;;5071149;28;20417;-85
2022/02/15 01:59:54;;;;;;;9.03;4.40;;;8.50;99.90;;;;;;5071579;28;20413;-84
2022/02/15 02:02:21;;;;;;;8.90;4.50;;;8.50;99.90;;;;;;5072562;28;20418;-86
2022/02/15 02:07:31;;;;;;;7.33;4.70;;;8.50;99.90;;;;;;5072552;28;21033;-85
2022/02/15 02:09:56;;;;;;;9.10;4.30;;;8.60;99.90;;;;;;5074880;28;20510;-84
2022/02/15 02:12:22;;;;;;;6.60;3.60;;;8.50;99.90;;;;;;5076526;28;20193;-84
2022/02/15 02:15:01;;;;;;;5.73;4.37;;;8.50;99.90;;;;;;5075031;28;20282;-84
2022/02/15 02:17:27;;;;;;;6.33;3.83;;;8.50;99.90;;;;;;5074641;28;20187;-85
2022/02/15 02:19:56;;;;;;;8.50;3.97;;;8.50;99.90;;;;;;5075314;28;20413;-85
2022/02/15 02:22:24;;;;;;;7.90;3.73;;;8.50;99.90;;;;;;5074686;28;20997;-85
2022/02/15 02:24:51;;;;;;;6.90;4.53;;;8.50;99.90;;;;;;5075958;28;20490;-84
2022/02/15 02:27:20;;;;;;;5.60;3.73;;;8.50;99.90;;;;;;5074979;28;20417;-85
2022/02/15 02:29:45;;;;;;;8.90;3.83;;;8.60;99.90;;;;;;5074703;28;20474;-85
2022/02/15 02:32:11;;;;;;;5.40;3.80;;;8.50;99.90;;;;;;5074912;28;20417;-85
2022/02/15 02:34:37;;;;;;;7.07;3.50;;;8.50;99.90;;;;;;5074398;28;20210;-85
2022/02/15 02:37:02;;;;;;;5.97;3.40;;;8.50;99.90;;;;;;5074246;28;20282;-85
2022/02/15 02:39:28;;;;;;;5.30;3.27;;;8.40;99.90;;;;;;5075889;28;20189;-85
2022/02/15 02:41:54;;;;;;;5.63;3.17;;;8.40;99.90;;;;;;5074854;28;20179;-85
2022/02/15 02:44:20;;;;;;;6.43;3.80;;;8.40;99.90;;;;;;5075462;28;20681;-85
2022/02/15 02:46:46;;;;;;;10.70;3.67;;;8.30;99.90;;;;;;5074482;28;20461;-85
2022/02/15 02:49:11;;;;;;;6.50;3.60;;;8.40;99.90;;;;;;5075612;28;20183;-84
2022/02/15 02:51:37;;;;;;;7.20;3.73;;;8.40;99.90;;;;;;5075443;28;20175;-85
2022/02/15 02:54:02;;;;;;;6.50;3.60;;;8.30;99.90;;;;;;5074411;28;20224;-85
2022/02/15 02:56:28;;;;;;;7.87;2.90;;;8.40;99.90;;;;;;5074391;28;20206;-85
2022/02/15 02:58:53;;;;;;;6.40;3.20;;;8.30;99.90;;;;;;5074449;28;20229;-84
2022/02/15 03:01:19;;;;;;;6.13;4.17;;;8.30;99.90;;;;;;5074390;28;20542;-84
2022/02/15 03:03:44;;;;;;;4.73;3.30;;;8.30;99.90;;;;;;5074195;28;20175;-84
2022/02/15 03:06:10;;;;;;;6.37;3.90;;;8.40;99.90;;;;;;5074141;28;20713;-84
2022/02/15 03:08:36;;;;;;;6.93;3.97;;;8.30;99.90;;;;;;5073918;28;20606;-84
2022/02/15 03:11:01;;;;;;;6.03;4.33;;;8.30;99.90;;;;;;5073634;28;20182;-84
2022/02/15 03:13:27;;;;;;;9.97;3.93;;;8.30;99.90;;;;;;5074174;28;20179;-85
2022/02/15 03:15:52;;;;;;;6.50;4.07;;;8.30;99.90;;;;;;5074140;28;20223;-84
2022/02/15 03:18:18;;;;;;;9.40;3.93;;;8.30;99.90;;;;;;5073614;28;20171;-84
2022/02/15 03:20:43;;;;;;;7.17;4.10;;;8.30;99.90;;;;;;5074992;28;20174;-84
2022/02/15 03:23:10;;;;;;;7.23;4.17;;;8.30;99.90;;;;;;5074085;28;20182;-84
2022/02/15 03:25:35;;;;;;;6.80;3.73;;;8.30;99.90;;;;;;5074033;28;20210;-85
2022/02/15 03:28:02;;;;;;;7.97;4.00;;;8.30;99.90;;;;;;5073306;28;20425;-84
2022/02/15 03:30:27;;;;;;;7.70;3.93;;;8.30;99.90;;;;;;5073605;28;20274;-84
2022/02/15 03:32:53;;;;;;;7.77;3.83;;;8.30;99.90;;;;;;5073738;28;20505;-84
2022/02/15 03:35:19;;;;;;;8.40;4.10;;;8.30;99.90;;;;;;5073323;28;20690;-85
2022/02/15 03:37:44;;;;;;;6.67;3.37;;;8.20;99.90;;;;;;5074562;28;20217;-85
2022/02/15 03:40:10;;;;;;;5.97;3.47;;;8.30;99.90;;;;;;5073884;28;20425;-84
2022/02/15 03:45:20;;;;;;;8.73;3.53;;;8.20;99.90;;;;;;5075065;28;20455;-85
2022/02/15 03:47:46;;;;;;;6.70;3.57;;;8.20;99.90;;;;;;5073186;28;20422;-85
2022/02/15 03:50:12;;;;;;;8.93;3.80;;;8.10;99.90;;;;;;5073485;28;20183;-84
2022/02/15 03:52:38;;;;;;;7.80;4.33;;;8.10;99.90;;;;;;5073183;28;20183;-84
2022/02/15 03:55:05;;;;;;;7.50;3.73;;;8.10;99.90;;;;;;5073297;28;20207;-85
2022/02/15 03:57:35;;;;;;;7.30;4.87;;;8.10;99.90;;;;;;5072721;28;20547;-85
2022/02/15 04:00:02;;;;;;;7.13;3.80;;;8.10;99.90;;;;;;5074558;28;21018;-84
2022/02/15 04:02:27;;;;;;;11.40;5.60;;;8.10;99.90;;;;;;5073083;28;20409;-84
2022/02/15 04:04:54;;;;;;;10.13;4.60;;;8.10;99.90;;;;;;5072932;28;20453;-84
2022/02/15 04:07:19;;;;;;;8.50;4.30;;;8.10;99.90;;;;;;5072691;28;20558;-84
2022/02/15 04:09:45;;;;;;;6.67;5.13;;;8.20;99.90;;;;;;5074056;28;20409;-84
2022/02/15 04:12:10;;;;;;;9.60;4.90;;;8.10;99.90;;;;;;5072815;28;20175;-84
2022/02/15 04:14:36;;;;;;;6.57;3.90;;;8.10;99.90;;;;;;5073854;28;20606;-84
2022/02/15 04:17:02;;;;;;;6.23;3.77;;;7.90;99.90;;;;;;5072356;28;20195;-85
2022/02/15 04:19:28;;;;;;;9.23;4.70;;;7.90;99.90;;;;;;5072516;28;20819;-84
2022/02/15 04:21:54;;;;;;;6.40;3.97;;;7.80;99.90;;;;;;5072748;28;20167;-85
2022/02/15 04:24:20;;;;;;;7.70;4.90;;;7.70;99.90;;;;;;5073938;28;20171;-84
2022/02/15 04:26:46;;;;;;;11.83;5.07;;;7.60;99.90;;;;;;5072515;28;20467;-85
2022/02/15 04:29:12;;;;;;;8.07;4.83;;;7.50;99.90;;;;;;5072282;28;20550;-84
2022/02/15 04:31:38;;;;;;;7.70;4.33;;;7.40;99.90;;;;;;5071863;28;20179;-85
2022/02/15 04:34:04;;;;;;;10.40;5.10;;;7.30;99.90;;;;;;5072390;28;20474;-85
2022/02/15 04:36:29;;;;;;;7.80;5.10;;;7.30;99.90;;;;;;5071903;28;20605;-84
2022/02/15 04:38:55;;;;;;;7.40;4.97;;;7.20;99.90;;;;;;5073426;28;20175;-84
2022/02/15 04:41:21;;;;;;;7.80;4.47;;;7.30;99.90;;;;;;5072395;28;20175;-84
2022/02/15 04:43:46;;;;;;;9.50;5.70;;;7.30;99.90;;;;;;5073400;28;20757;-85
2022/02/15 04:46:12;;;;;;;8.40;4.80;;;7.30;99.90;;;;;;5072186;28;20218;-84
2022/02/15 04:48:37;;;;;;;8.43;5.07;;;7.20;99.90;;;;;;5072114;28;20677;-85
2022/02/15 04:51:03;;;;;;;7.87;4.67;;;7.20;99.90;;;;;;5072243;28;20186;-84
2022/02/15 04:53:28;;;;;;;10.97;6.90;;;7.20;99.90;;;;;;5073552;28;20218;-84
2022/02/15 04:55:54;;;;;;;9.73;5.20;;;7.20;99.90;;;;;;5071913;28;20674;-84
2022/02/15 04:58:20;;;;;;;10.70;6.00;;;7.20;99.90;;;;;;5072093;28;20185;-84
2022/02/15 05:00:48;;;;;;;9.60;5.93;;;7.20;99.90;;;;;;5072815;28;20238;-84
2022/02/15 05:03:14;;;;;;;11.53;5.70;;;7.30;99.90;;;;;;5072536;28;20420;-85
2022/02/15 05:05:40;;;;;;;11.50;5.70;;;7.40;99.90;;;;;;5072386;28;21054;-84
2022/02/15 05:08:05;;;;;;;9.80;5.20;;;7.40;99.90;;;;;;5072044;28;20520;-84
2022/02/15 05:10:31;;;;;;;9.83;5.57;;;7.40;99.90;;;;;;5072190;28;20277;-85
2022/02/15 05:12:57;;;;;;;10.90;5.80;;;7.50;99.90;;;;;;5072419;28;20191;-84
2022/02/15 05:15:22;;;;;;;11.97;5.20;;;7.50;99.90;;;;;;5073126;28;20203;-84
2022/02/15 05:17:48;;;;;;;10.57;6.13;;;7.50;99.90;;;;;;5072262;28;20761;-85
2022/02/15 05:20:16;;;;;;;9.03;5.20;;;7.60;99.90;;;;;;5073335;28;20217;-85
2022/02/15 05:22:42;;;;;;;9.23;4.63;;;7.60;99.90;;;;;;5072359;28;20175;-84
2022/02/15 05:25:10;;;;;;;10.23;5.90;;;7.70;99.90;;;;;;5073246;28;20467;-84
2022/02/15 05:27:35;;;;;;;6.63;4.30;;;7.70;99.90;;;;;;5072180;28;20508;-85
2022/02/15 05:30:02;;;;;;;7.87;5.23;;;7.80;99.90;;;;;;5071626;28;20496;-85
2022/02/15 05:32:28;;;;;;;9.70;4.43;;;7.70;99.90;;;;;;5072046;28;20174;-84
2022/02/15 05:34:53;;;;;;;12.43;5.60;;;7.60;99.90;;;;;;5071992;28;20444;-85
2022/02/15 05:37:19;;;;;;;12.40;6.33;;;7.70;99.90;;;;;;5071772;28;20479;-85
2022/02/15 05:39:45;;;;;;;7.90;5.57;;;7.60;99.90;;;;;;5073606;28;20228;-86
2022/02/15 05:42:10;;;;;;;6.80;5.07;;;7.60;99.90;;;;;;5072318;28;20771;-84
2022/02/15 05:44:36;;;;;;;10.20;5.40;;;7.60;99.90;;;;;;5074555;28;20278;-84
2022/02/15 05:47:02;;;;;;;7.97;5.10;;;7.60;99.90;;;;;;5075649;28;20183;-84
2022/02/15 05:49:27;;;;;;;11.07;5.93;;;7.60;99.90;;;;;;5075779;28;20183;-84
2022/02/15 05:51:53;;;;;;;11.10;5.50;;;7.60;99.90;;;;;;5075626;28;20179;-84
2022/02/15 05:54:19;;;;;;;9.00;5.27;;;7.60;99.90;;;;;;5076587;28;20179;-85
2022/02/15 05:56:44;;;;;;;9.20;6.40;;;7.60;99.90;;;;;;5076445;28;20284;-83
2022/02/15 05:59:10;;;;;;;8.27;5.57;;;7.60;99.90;;;;;;5076752;28;20202;-84
2022/02/15 06:01:35;;;;;;;8.47;5.47;;;7.60;99.90;;;;;;5076381;28;20216;-85
2022/02/15 06:04:10;;;;;;;9.77;5.90;;;7.70;99.90;;;;;;5075460;28;20178;-84
2022/02/15 06:06:35;;;;;;;9.80;6.50;;;7.60;99.90;;;;;;5074943;28;20185;-85
2022/02/15 06:09:02;;;;;;;10.00;5.80;;;7.50;99.90;;;;;;5074408;28;20421;-84
2022/02/15 06:11:27;;;;;;;13.30;5.07;;;7.60;99.90;;;;;;5074394;28;20557;-84
2022/02/15 06:13:55;;;;;;;9.50;4.80;;;7.50;99.90;;;;;;5074134;28;20417;-83
2022/02/15 06:16:22;;;;;;;8.93;4.87;;;7.50;99.90;;;;;;5073793;28;20297;-84
2022/02/15 06:18:49;;;;;;;9.30;5.30;;;7.30;99.90;;;;;;5074120;28;20500;-84
2022/02/15 06:21:14;;;;;;;7.13;4.17;;;7.20;99.90;;;;;;5074798;28;20405;-84
2022/02/15 06:23:40;;;;;;;5.93;4.00;;;7.20;99.90;;;;;;5074811;28;20474;-85
2022/02/15 06:26:05;;;;;;;9.40;4.70;;;7.20;99.90;;;;;;5074636;28;20195;-85
2022/02/15 06:28:31;;;;;;;8.17;4.70;;;7.20;99.90;;;;;;5074312;28;20178;-84
2022/02/15 06:30:56;;;;;;;6.43;3.70;;;7.20;99.90;;;;;;5074525;28;20182;-84
2022/02/15 06:33:23;;;;;;;7.40;3.40;;;7.20;99.90;;;;;;5075654;28;20179;-84
2022/02/15 06:35:49;;;;;;;7.17;3.60;;;7.20;99.90;;;;;;5074161;28;20215;-84
2022/02/15 06:38:14;;;;;;;9.20;3.50;;;7.30;99.90;;;;;;5074328;28;20486;-85
2022/02/15 06:40:40;;;;;;;5.23;3.80;;;7.30;99.90;;;;;;5074842;28;20698;-83
2022/02/15 06:43:06;;;;;;;8.00;4.27;;;7.30;99.90;;;;;;5074909;28;20171;-84
2022/02/15 06:45:31;;;;;;;9.70;5.20;;;7.20;99.90;;;;;;5076034;28;20252;-83
2022/02/15 06:47:58;;;;;;;7.90;4.67;;;7.10;99.90;;;;;;5074670;28;20175;-86
2022/02/15 06:50:24;;;;;;;8.00;5.27;;;7.10;99.90;;;;;;5074843;28;20179;-83
2022/02/15 06:52:49;;;;;;;9.50;5.10;;;7.00;99.90;;;;;;5074610;28;20428;-83
2022/02/15 06:55:15;;;;;;;10.37;5.40;;;7.10;99.90;;;;;;5073652;28;20444;-82
2022/02/15 06:57:41;;;;;;;9.83;5.87;;;7.00;99.90;;;;;;5075488;28;20247;-83
2022/02/15 07:00:07;;;;;;;14.53;7.20;;;7.10;99.90;;;;;;5074268;28;20182;-84
2022/02/15 07:02:32;;;;;;;11.77;6.00;;;7.10;99.90;;;;;;5074068;28;20214;-83
2022/02/15 07:04:58;;;;;;;13.53;6.97;;;7.10;99.90;;;;;;5075311;28;20813;-83
2022/02/15 07:07:23;;;;;;;12.43;6.77;;;7.10;99.90;;;;;;5074385;28;20182;-84
2022/02/15 07:09:49;;;;;;;14.17;7.87;;;7.10;99.90;;;;;;5074533;28;20698;-83
2022/02/15 07:12:15;;;;;;;11.50;7.13;;;7.10;99.90;;;;;;5074068;28;20181;-84
2022/02/15 07:14:40;;;;;;;12.63;8.33;;;7.10;99.90;;;;;;5074636;28;20433;-83
2022/02/15 07:17:07;;;;;;;13.17;8.27;;;7.10;99.90;;;;;;5074296;28;20235;-85
2022/02/15 07:19:33;;;;;;;11.00;7.30;;;7.10;99.90;;;;;;5076531;28;20171;-84
2022/02/15 07:22:02;;;;;;;12.73;8.23;;;7.10;99.90;;;;;;5076473;28;20406;-83
2022/02/15 07:24:27;;;;;;;12.43;8.10;;;7.20;99.90;;;;;;5074839;28;20660;-84
2022/02/15 07:26:53;;;;;;;13.30;8.03;;;7.30;99.90;;;;;;5074248;28;20436;-84
2022/02/15 07:29:19;;;;;;;15.53;9.63;;;7.30;99.90;;;;;;5074898;28;20262;-83
2022/02/15 07:31:45;;;;;;;13.30;8.23;;;7.30;99.90;;;;;;5073677;28;20928;-82
2022/02/15 07:34:11;;;;;;;15.90;8.33;;;7.40;99.90;;;;;;5073030;28;20178;-84
2022/02/15 07:36:36;;;;;;;13.53;8.00;;;7.40;99.90;;;;;;5072461;28;20249;-85
2022/02/15 07:39:02;;;;;;;13.83;8.27;;;7.50;99.90;;;;;;5075589;28;20612;-83
2022/02/15 07:41:28;;;;;;;15.13;8.83;;;7.60;99.90;;;;;;5073964;28;20187;-82
2022/02/15 07:43:54;;;;;;;14.73;8.10;;;7.60;99.90;;;;;;5073516;28;20448;-84
2022/02/15 07:46:20;;;;;;;17.63;8.00;;;7.60;99.90;;;;;;5073124;28;20445;-85
2022/02/15 07:48:45;;;;;;;12.43;8.10;;;7.60;99.90;;;;;;5073487;28;20482;-83
2022/02/15 07:51:11;;;;;;;13.60;8.20;;;7.60;99.90;;;;;;5074882;28;20186;-84
2022/02/15 07:53:36;;;;;;;14.37;7.90;;;7.60;99.90;;;;;;5073247;28;20190;-84
2022/02/15 07:56:02;;;;;;;13.33;8.60;;;7.60;99.90;;;;;;5069242;28;20215;-85
2022/02/15 07:58:28;;;;;;;15.33;8.67;;;7.70;99.90;;;;;;5054182;28;20180;-83
2022/02/15 08:00:53;;;;;;;14.30;8.30;;;7.60;99.90;;;;;;5052835;28;20189;-83
2022/02/15 08:03:19;;;;;;;14.13;9.50;;;7.70;99.90;;;;;;5052975;28;20333;-85
2022/02/15 08:05:45;;;;;;;15.53;9.57;;;7.70;99.90;;;;;;5067061;28;20214;-83
2022/02/15 08:08:11;;;;;;;15.90;10.67;;;7.80;99.90;;;;;;5072351;28;20262;-85
2022/02/15 08:10:37;;;;;;;15.80;8.70;;;7.80;99.90;;;;;;5074754;28;20167;-83
2022/02/15 08:13:05;;;;;;;18.20;9.63;;;7.90;99.90;;;;;;5072502;28;20425;-84
2022/02/15 08:15:33;;;;;;;21.97;10.17;;;7.90;99.90;;;;;;5072209;28;20465;-85
2022/02/15 08:18:00;;;;;;;15.83;10.43;;;7.90;99.90;;;;;;5072370;28;20437;-83
2022/02/15 08:20:26;;;;;;;16.20;9.50;;;8.00;99.90;;;;;;5074043;28;20410;-84
2022/02/15 08:22:52;;;;;;;17.87;10.73;;;8.00;99.90;;;;;;5072429;28;20894;-83
2022/02/15 08:25:21;;;;;;;17.80;10.83;;;7.90;99.90;;;;;;5073573;28;20248;-83
2022/02/15 08:27:47;;;;;;;19.30;9.90;;;8.00;99.90;;;;;;5072092;28;20225;-83
2022/02/15 08:30:14;;;;;;;15.03;8.97;;;7.90;99.90;;;;;;5072775;28;20504;-83
2022/02/15 08:32:40;;;;;;;18.63;8.40;;;8.00;99.90;;;;;;5072239;28;20422;-84
2022/02/15 08:35:07;;;;;;;17.37;9.20;;;8.00;99.90;;;;;;5072103;28;20978;-83
2022/02/15 08:37:33;;;;;;;21.53;10.77;;;8.00;99.90;;;;;;5072844;28;20203;-83
2022/02/15 08:40:00;;;;;;;14.97;8.90;;;8.00;99.90;;;;;;5071949;28;20436;-85
2022/02/15 08:42:26;;;;;;;12.27;8.63;;;8.00;99.90;;;;;;5071800;28;21000;-86
2022/02/15 08:44:53;;;;;;;11.70;7.30;;;8.00;99.90;;;;;;5071806;28;20429;-85
2022/02/15 08:47:19;;;;;;;13.00;9.30;;;8.10;99.90;;;;;;5072857;28;20479;-83
2022/02/15 08:49:47;;;;;;;13.90;8.00;;;8.20;99.90;;;;;;5073035;28;20425;-83
2022/02/15 08:52:13;;;;;;;14.73;8.10;;;8.30;99.90;;;;;;5071905;28;20517;-84
2022/02/15 08:54:39;;;;;;;13.83;7.90;;;8.30;99.90;;;;;;5066091;28;20529;-82
2022/02/15 08:57:05;;;;;;;12.03;8.57;;;8.20;99.90;;;;;;5052637;28;20488;-85
2022/02/15 08:59:31;;;;;;;15.07;8.00;;;8.30;99.90;;;;;;5052894;28;20176;-84
2022/02/15 09:01:57;;;;;;;11.13;7.03;;;8.30;99.90;;;;;;5051903;28;20502;-84
2022/02/15 09:04:22;;;;;;;11.33;7.90;;;8.30;99.90;;;;;;5055976;28;20218;-84
2022/02/15 09:06:48;;;;;;;11.03;6.53;;;8.30;99.90;;;;;;5069321;28;20452;-84
2022/02/15 09:09:14;;;;;;;9.40;6.30;;;8.30;99.90;;;;;;5071874;28;20206;-84
2022/02/15 09:11:41;;;;;;;11.60;6.30;;;8.20;99.90;;;;;;5071314;28;20665;-86
2022/02/15 09:14:06;;;;;;;8.00;5.40;;;8.30;99.90;;;;;;5070357;28;20179;-84
2022/02/15 09:16:32;;;;;;;11.43;7.27;;;8.30;99.90;;;;;;5065651;28;20820;-85
2022/02/15 09:18:58;;;;;;;8.87;7.60;;;8.30;99.90;;;;;;5070856;28;20186;-82
2022/02/15 09:21:24;;;;;;;10.60;6.30;;;8.20;99.90;;;;;;5070718;28;20171;-81
2022/02/15 09:23:49;;;;;;;10.33;7.17;;;8.10;99.90;;;;;;5070810;28;20801;-83
2022/02/15 09:26:15;;;;;;;9.97;6.13;;;8.10;99.90;;;;;;5070327;28;20691;-83
2022/02/15 09:28:41;;;;;;;9.97;6.10;;;8.20;99.90;;;;;;5071206;28;20186;-82
2022/02/15 09:31:07;;;;;;;7.80;4.90;;;8.10;99.90;;;;;;5072651;28;20254;-84
2022/02/15 09:33:32;;;;;;;8.00;5.37;;;8.10;99.90;;;;;;5070548;28;20240;-83
2022/02/15 09:35:58;;;;;;;8.70;5.90;;;8.20;99.90;;;;;;5071752;28;20203;-84
2022/02/15 09:38:24;;;;;;;8.63;5.97;;;8.10;99.90;;;;;;5070589;28;20211;-84
2022/02/15 09:40:50;;;;;;;9.53;6.70;;;8.20;99.90;;;;;;5070620;28;20432;-84
2022/02/15 09:43:16;;;;;;;8.73;5.77;;;8.10;99.90;;;;;;5070926;28;20190;-84
2022/02/15 09:45:46;;;;;;;8.40;5.83;;;8.10;99.90;;;;;;5070629;28;20437;-85
2022/02/15 09:48:13;;;;;;;10.37;6.83;;;8.10;99.90;;;;;;5070893;28;20432;-85
2022/02/15 09:50:40;;;;;;;11.83;6.57;;;8.20;99.90;;;;;;5071998;28;20424;-84
2022/02/15 09:53:06;;;;;;;20.30;7.90;;;8.20;99.90;;;;;;5073212;28;20422;-84
2022/02/15 09:55:32;;;;;;;9.17;6.50;;;8.30;99.90;;;;;;5073302;28;21258;-84
2022/02/15 09:57:57;;;;;;;11.23;6.93;;;8.40;99.90;;;;;;5074260;28;20462;-84
2022/02/15 10:00:23;;;;;;;10.10;6.60;;;8.60;99.90;;;;;;5073209;28;20421;-85
2022/02/15 10:02:49;;;;;;;12.93;6.53;;;8.80;99.90;;;;;;5074297;28;20250;-85
2022/02/15 10:05:17;;;;;;;10.67;6.80;;;8.90;99.90;;;;;;5073097;28;20555;-85
2022/02/15 10:07:56;;;;;;;11.57;6.53;;;8.90;99.90;;;;;;5072892;28;20516;-86
2022/02/15 10:10:34;;;;;;;10.33;6.10;;;8.90;99.90;;;;;;5071335;28;20483;-84
2022/02/15 10:13:05;;;;;;;11.10;5.90;;;8.70;99.90;;;;;;5070709;28;20425;-82
2022/02/15 10:15:34;;;;;;;9.70;5.27;;;8.80;99.90;;;;;;5071287;28;20456;-83
2022/02/15 10:18:07;;;;;;;8.70;5.50;;;8.90;99.90;;;;;;5070907;28;20500;-82
2022/02/15 10:20:34;;;;;;;8.27;5.73;;;9.00;99.90;;;;;;5070205;28;20927;-84
2022/02/15 10:23:20;;;;;;;7.33;5.17;;;8.90;99.90;;;;;;5070249;28;20424;-86
2022/02/15 10:25:47;;;;;;;8.30;6.27;;;9.10;99.90;;;;;;5071757;28;20436;-83
2022/02/15 10:28:18;;;;;;;8.20;5.47;;;9.20;99.90;;;;;;5070512;28;20425;-83
2022/02/15 10:30:54;;;;;;;10.10;6.30;;;9.30;99.90;;;;;;5074759;28;20817;-82
2022/02/15 10:33:27;;;;;;;10.77;5.77;;;9.20;99.90;;;;;;5075146;28;20413;-82
2022/02/15 10:35:58;;;;;;;6.90;3.80;;;9.10;99.90;;;;;;5074064;28;20556;-83
2022/02/15 10:38:36;;;;;;;8.20;5.37;;;9.10;99.90;;;;;;5073869;28;20424;-82
2022/02/15 10:41:09;;;;;;;8.60;5.40;;;9.00;99.90;;;;;;5075041;28;20786;-82
2022/02/15 10:44:01;;;;;;;5.93;3.67;;;9.10;99.90;;;;;;5074056;28;20417;-84
2022/02/15 10:46:29;;;;;;;4.40;3.30;;;9.10;99.90;;;;;;5068356;28;20481;-81
2022/02/15 10:48:56;;;;;;;6.47;3.80;;;9.30;99.90;;;;;;5074105;28;20422;-83
2022/02/15 10:51:23;;;;;;;13.47;4.93;;;9.40;99.90;;;;;;5073604;28;20820;-83
2022/02/15 10:53:49;;;;;;;7.77;4.13;;;9.40;99.90;;;;;;5075119;28;20436;-82
2022/02/15 10:56:14;;;;;;;9.23;3.90;;;9.50;99.90;;;;;;5074199;28;20999;-84
2022/02/15 10:58:40;;;;;;;6.40;3.77;;;9.70;99.90;;;;;;5073811;28;20179;-82
2022/02/15 11:01:08;;;;;;;7.97;3.43;;;9.70;99.90;;;;;;5075186;28;20173;-85
2022/02/15 11:03:35;;;;;;;6.17;3.70;;;9.80;99.90;;;;;;5074739;28;20182;-85
2022/02/15 11:06:02;;;;;;;8.63;4.17;;;10.10;99.90;;;;;;5076530;28;21004;-84
2022/02/15 11:08:29;;;;;;;7.90;4.27;;;10.20;99.90;;;;;;5084178;28;20452;-84
2022/02/15 11:11:10;;;;;;;10.13;4.73;;;11.20;99.90;;;;;;5084003;28;20451;-84
2022/02/15 11:13:38;;;;;;;5.70;3.20;;;11.40;99.90;;;;;;5088798;28;20419;-86
2022/02/15 11:16:11;;;;;;;4.73;3.40;;;11.40;99.90;;;;;;5082451;28;20485;-84
2022/02/15 11:18:37;;;;;;;10.90;3.80;;;12.00;99.90;;;;;;5083053;28;20498;-85
2022/02/15 11:21:04;;;;;;;5.67;4.00;;;12.60;99.90;;;;;;5081110;28;20421;-83
2022/02/15 11:23:32;;;;;;;5.50;4.47;;;13.60;99.90;;;;;;5084894;28;20483;-84
2022/02/15 11:26:09;;;;;;;7.60;4.03;;;13.40;99.90;;;;;;5083939;28;21023;-83
2022/02/15 11:28:49;;;;;;;6.70;4.20;;;12.90;99.90;;;;;;5091396;28;20449;-84
2022/02/15 11:31:30;;;;;;;6.23;3.30;;;11.80;99.90;;;;;;5073979;28;20434;-83
2022/02/15 11:33:56;;;;;;;7.90;4.10;;;10.90;99.90;;;;;;5075466;28;20435;-86
2022/02/15 11:36:24;;;;;;;4.90;3.03;;;10.50;99.90;;;;;;5074806;28;20996;-85
2022/02/15 11:39:03;;;;;;;5.33;3.13;;;10.00;99.90;;;;;;5074606;28;20793;-84
2022/02/15 11:41:40;;;;;;;5.50;3.10;;;9.60;99.90;;;;;;5074121;28;20409;-83
2022/02/15 11:44:06;;;;;;;4.63;2.83;;;9.30;99.90;;;;;;5078341;28;20424;-82
2022/02/15 11:46:34;;;;;;;7.50;3.07;;;9.20;99.90;;;;;;5074814;28;20429;-86
2022/02/15 11:49:13;;;;;;;5.10;2.43;;;9.40;99.90;;;;;;5073591;28;20197;-84
2022/02/15 11:51:41;;;;;;;4.60;2.93;;;10.80;99.90;;;;;;5073223;28;20828;-84
2022/02/15 11:54:26;;;;;;;5.53;3.17;;;10.90;99.90;;;;;;5069997;28;20459;-83
2022/02/15 11:56:53;;;;;;;5.27;2.87;;;12.20;99.90;;;;;;5066429;28;20453;-85
2022/02/15 11:59:23;;;;;;;3.87;2.70;;;13.60;99.90;;;;;;5073421;28;20410;-83
2022/02/15 12:02:04;;;;;;;5.60;2.63;;;12.20;99.90;;;;;;5075093;28;20459;-83
2022/02/15 12:04:30;;;;;;;3.70;2.17;;;11.60;99.90;;;;;;5070545;28;20528;-84
2022/02/15 12:07:00;;;;;;;6.43;2.40;;;12.80;99.90;;;;;;5070804;28;20468;-84
2022/02/15 12:09:31;;;;;;;3.50;2.10;;;16.00;99.90;;;;;;5074092;28;20236;-86
2022/02/15 12:11:58;;;;;;;3.90;1.87;;;18.20;92.90;;;;;;5074048;28;20479;-83
2022/02/15 12:14:27;;;;;;;5.00;2.00;;;18.20;81.40;;;;;;5057084;28;20415;-83
2022/02/15 12:16:56;;;;;;;3.50;2.20;;;18.50;76.40;;;;;;5052974;28;20462;-84
2022/02/15 12:19:25;;;;;;;4.30;2.30;;;16.10;76.70;;;;;;5051766;28;20410;-85
2022/02/15 12:21:52;;;;;;;3.93;2.13;;;16.00;77.80;;;;;;5053832;28;20482;-84
2022/02/15 12:24:18;;;;;;;3.33;1.93;;;15.50;85.40;;;;;;5054946;28;20442;-85
2022/02/15 12:26:44;;;;;;;3.27;2.23;;;16.60;80.00;;;;;;5054320;28;20426;-84
2022/02/15 12:29:10;;;;;;;3.90;2.00;;;16.20;77.70;;;;;;5054303;28;20418;-84
2022/02/15 12:31:36;;;;;;;4.47;1.87;;;15.90;81.50;;;;;;5054144;28;20176;-85
2022/02/15 12:34:04;;;;;;;5.07;2.30;;;15.20;83.10;;;;;;5054517;28;20426;-85
2022/02/15 12:36:31;;;;;;;5.00;1.63;;;15.90;87.30;;;;;;5052233;28;20470;-86
2022/02/15 12:38:57;;;;;;;5.13;1.60;;;16.10;83.40;;;;;;5052199;28;20414;-85
2022/02/15 12:41:24;;;;;;;4.50;2.17;;;15.60;85.60;;;;;;5060513;28;20529;-86
2022/02/15 12:44:00;;;;;;;3.10;1.87;;;16.40;86.10;;;;;;5060608;28;20469;-88
2022/02/15 12:46:26;;;;;;;4.13;1.73;;;16.30;84.80;;;;;;5063291;28;20211;-86
2022/02/15 12:48:52;;;;;;;3.20;2.27;;;15.30;85.50;;;;;;5058934;28;20480;-86
2022/02/15 12:51:19;;;;;;;5.50;1.87;;;14.40;91.20;;;;;;5059998;28;20418;-86
2022/02/15 12:53:54;;;;;;;3.20;1.53;;;15.00;93.00;;;;;;5059824;28;20475;-86
2022/02/15 12:56:21;;;;;;;3.53;1.80;;;15.20;88.00;;;;;;5058897;28;20496;-86